createdAt,value
2018-05-15T07:58:37.950Z,25.23
2018-05-15T07:59:37.657Z,25.22
2018-05-15T08:01:30.733Z,25.22
2018-05-15T08:02:30.753Z,25.19
2018-05-15T08:04:23.955Z,25.23
2018-05-15T08:05:23.872Z,25.14
2018-05-15T08:07:16.981Z,25.07
2018-05-15T08:08:17.000Z,25.01
2018-05-15T08:10:10.078Z,25.04
2018-05-15T08:11:10.092Z,25.09
2018-05-15T08:13:03.184Z,25.05
2018-05-15T08:14:03.299Z,24.98
2018-05-15T08:15:03.226Z,25.08
2018-05-15T08:16:03.250Z,25.08
2018-05-15T08:17:03.275Z,25.09
2018-05-15T08:18:03.300Z,25.05
2018-05-15T08:19:03.327Z,25.05
2018-05-15T08:20:03.347Z,25.01
2018-05-15T08:21:03.372Z,24.98
2018-05-15T08:22:03.395Z,24.94
2018-05-15T08:23:03.425Z,24.97
2018-05-15T08:24:03.448Z,24.98
2018-05-15T08:25:03.475Z,24.99
2018-05-15T08:26:03.498Z,25.08
2018-05-15T08:27:03.534Z,25.08
2018-05-15T08:28:03.552Z,25.07
2018-05-15T08:29:03.574Z,25.14
2018-05-15T08:30:03.600Z,25.12
2018-05-15T08:31:03.628Z,25.23
2018-05-15T08:32:03.685Z,25.27
2018-05-15T08:33:03.678Z,25.26
2018-05-15T08:34:03.703Z,25.29
2018-05-15T08:35:03.734Z,25.30
2018-05-15T08:36:03.749Z,25.26
2018-05-15T08:37:03.777Z,25.24
2018-05-15T08:38:03.832Z,25.34
2018-05-15T08:39:03.833Z,25.30
2018-05-15T08:40:03.851Z,25.30
2018-05-15T08:41:03.880Z,25.34
2018-05-15T08:42:03.907Z,25.34
2018-05-15T08:43:03.943Z,25.31
2018-05-15T08:44:03.955Z,25.34
2018-05-15T08:45:03.990Z,25.38
2018-05-15T08:46:04.010Z,25.35
2018-05-15T08:47:04.034Z,25.23
2018-05-15T08:48:04.059Z,25.29
2018-05-15T08:49:04.088Z,25.29
2018-05-15T08:50:04.113Z,25.31
2018-05-15T08:51:04.137Z,25.31
2018-05-15T08:52:04.169Z,25.36
2018-05-15T08:53:04.189Z,25.38
2018-05-15T08:54:04.230Z,25.30
2018-05-15T08:55:04.233Z,25.36
2018-05-15T08:56:04.293Z,25.27
2018-05-15T08:57:04.297Z,25.30
2018-05-15T08:58:04.336Z,25.26
2018-05-15T08:59:04.343Z,25.35
2018-05-15T09:00:04.369Z,25.30
2018-05-15T09:01:04.399Z,25.35
2018-05-15T09:02:04.428Z,25.31
2018-05-15T09:03:04.446Z,25.34
2018-05-15T09:04:04.471Z,25.29
2018-05-15T09:05:04.510Z,25.31
2018-05-15T09:06:04.540Z,25.31
2018-05-15T09:07:04.549Z,25.35
2018-05-15T09:08:04.596Z,25.30
2018-05-15T09:09:04.600Z,25.36
2018-05-15T09:10:04.654Z,25.31
2018-05-15T09:11:04.657Z,25.34
2018-05-15T09:12:04.677Z,25.34
2018-05-15T09:13:04.711Z,25.35
2018-05-15T09:14:04.739Z,25.34
2018-05-15T09:15:04.769Z,25.34
2018-05-15T09:16:04.780Z,25.16
2018-05-15T09:17:04.809Z,25.24
2018-05-15T09:18:04.842Z,25.26
2018-05-15T09:19:04.865Z,25.24
2018-05-15T09:20:04.884Z,25.31
2018-05-15T09:21:04.922Z,25.26
2018-05-15T09:22:04.934Z,25.22
2018-05-15T09:23:04.968Z,25.17
2018-05-15T09:24:04.987Z,25.26
2018-05-15T09:25:05.022Z,25.30
2018-05-15T09:26:05.043Z,25.27
2018-05-15T09:27:05.069Z,25.19
2018-05-15T09:28:05.093Z,25.22
2018-05-15T09:29:05.117Z,25.22
2018-05-15T09:30:05.145Z,25.16
2018-05-15T09:31:05.172Z,25.24
2018-05-15T09:32:05.196Z,25.22
2018-05-15T09:33:05.272Z,25.23
2018-05-15T09:34:05.248Z,25.23
2018-05-15T09:35:05.281Z,25.19
2018-05-15T09:36:05.297Z,25.17
2018-05-15T09:37:05.354Z,25.20
2018-05-15T09:38:05.348Z,25.19
2018-05-15T09:39:05.381Z,25.29
2018-05-15T09:40:05.401Z,25.29
2018-05-15T09:41:05.431Z,25.26
2018-05-15T09:42:05.452Z,25.19
2018-05-15T09:43:05.476Z,25.11
2018-05-15T09:44:05.504Z,25.23
2018-05-15T09:45:05.529Z,25.12
2018-05-15T09:46:05.557Z,25.12
2018-05-15T09:47:05.607Z,25.23
2018-05-15T09:48:05.611Z,25.20
2018-05-15T09:49:05.632Z,25.27
2018-05-15T09:50:05.659Z,25.20
2018-05-15T09:51:05.699Z,25.14
2018-05-15T09:52:05.709Z,25.19
2018-05-15T09:53:05.736Z,25.17
2018-05-15T09:54:05.760Z,25.22
2018-05-15T09:55:05.786Z,25.24
2018-05-15T09:56:05.816Z,25.20
2018-05-15T09:57:05.835Z,25.22
2018-05-15T09:58:05.864Z,25.27
2018-05-15T09:59:05.891Z,25.23
2018-05-15T10:00:05.918Z,25.12
2018-05-15T10:01:06.605Z,25.16
2018-05-15T10:02:05.973Z,25.09
2018-05-15T10:03:05.993Z,25.17
2018-05-15T10:04:06.028Z,25.12
2018-05-15T10:05:06.046Z,25.08
2018-05-15T10:06:06.068Z,25.07
2018-05-15T10:07:06.101Z,25.04
2018-05-15T10:08:06.213Z,25.09
2018-05-15T10:09:06.190Z,25.16
2018-05-15T10:10:06.206Z,25.27
2018-05-15T10:11:06.216Z,25.12
2018-05-15T10:12:06.307Z,25.14
2018-05-15T10:13:06.252Z,25.04
2018-05-15T10:14:06.328Z,25.01
2018-05-15T10:15:06.306Z,25.02
2018-05-15T10:16:06.343Z,25.04
2018-05-15T10:17:07.127Z,25.08
2018-05-15T10:18:06.399Z,25.11
2018-05-15T10:19:06.435Z,25.09
2018-05-15T10:20:06.573Z,25.09
2018-05-15T10:21:06.455Z,25.05
2018-05-15T10:22:06.482Z,25.12
2018-05-15T10:23:06.541Z,25.09
2018-05-15T10:24:06.532Z,25.14
2018-05-15T10:25:06.559Z,25.09
2018-05-15T10:26:06.584Z,25.11
2018-05-15T10:27:06.603Z,25.04
2018-05-15T10:28:07.647Z,25.07
2018-05-15T10:29:06.676Z,25.09
2018-05-15T10:30:06.683Z,25.07
2018-05-15T10:31:06.759Z,25.05
2018-05-15T10:32:06.775Z,25.05
2018-05-15T10:33:06.763Z,25.08
2018-05-15T10:34:06.783Z,25.08
2018-05-15T10:35:06.814Z,25.09
2018-05-15T10:36:06.835Z,25.12
